Data for 11/21/2005

Time Sea-Level Adjusted Pressure Absolute Pressure Temperature Relative Humidity Dew Point   
(mb) (inHg) (mb) (inHg) (C) (F) (%) (C) (F)
00:05 1028 30.36 857 25.31 3.1 37.5 60 -4 24.8
00:10 1028 30.36 857 25.31 3.3 37.9 59 -4 24.9
00:15 1028 30.36 857 25.31 3.3 38 59 -4 24.8
00:20 1028 30.36 857 25.31 3.4 38.2 58 -4 24.8
00:25 1028 30.36 857 25.31 3.5 38.4 58 -4 24.8
00:30 1028 30.36 857 25.31 3.6 38.5 57 -4.1 24.7
00:35 1027 30.33 857 25.31 3.4 38.2 59 -3.9 25
00:40 1027 30.33 857 25.31 3.4 38.1 58 -4.1 24.6
00:45 1028 30.36 857 25.31 3.8 38.8 57 -3.9 25.1
00:50 1028 30.36 857 25.31 4 39.3 56 -3.9 25
00:55 1028 30.36 857 25.31 4.1 39.4 57 -3.6 25.5
01:00 1028 30.36 857 25.31 3.6 38.5 60 -3.3 26
01:05 1028 30.36 857 25.31 3.4 38.1 60 -3.7 25.3
01:10 1028 30.36 857 25.31 3.3 37.9 62 -3.4 26
01:15 1028 30.36 857 25.31 3.3 38 59 -4 24.8
01:20 1028 30.36 857 25.31 3.4 38 59 -3.8 25.1
01:25 1028 30.36 857 25.31 3 37.4 61 -3.7 25.4
01:30 1028 30.36 857 25.31 2.7 36.8 62 -3.9 25
01:35 1028 30.36 857 25.31 2.6 36.7 62 -3.9 25.1
01:40 1028 30.36 858 25.34 2.4 36.4 65 -3.4 25.9
01:45 1028 30.36 858 25.34 2.2 35.9 65 -3.8 25.2
01:50 1028 30.36 858 25.34 2.4 36.4 64 -3.8 25.2
01:55 1028 30.36 858 25.34 2.1 35.7 66 -3.7 25.4
02:00 1028 30.36 858 25.34 1.6 34.9 68 -3.6 25.5
02:05 1029 30.39 858 25.34 1.4 34.5 68 -4 24.9
02:10 1029 30.39 858 25.34 1.3 34.3 69 -3.8 25.1
02:15 1029 30.39 858 25.34 1.8 35.3 66 -3.9 25
02:20 1029 30.39 858 25.34 2.2 36 64 -3.8 25.1
02:25 1029 30.39 858 25.34 1.8 35.2 68 -3.5 25.8
02:30 1029 30.39 858 25.34 1.3 34.3 68 -4 24.8
02:35 1029 30.39 858 25.34 1.2 34.1 70 -3.7 25.4
02:40 1029 30.39 858 25.34 0.5 33 72 -4 24.8
02:45 1029 30.39 858 25.34 0.6 33.1 71 -4.1 24.7
02:50 1029 30.39 858 25.34 0.4 32.7 72 -4.1 24.7
02:55 1029 30.39 858 25.34 0.9 33.5 69 -4.3 24.3
03:00 1029 30.39 858 25.34 0.6 33.1 70 -4.2 24.5
03:05 1029 30.39 858 25.34 0.4 32.7 72 -4.1 24.6
03:10 1029 30.39 858 25.34 -0 32 74 -4.2 24.4
03:15 1029 30.39 858 25.34 0.2 32.3 72 -4.2 24.4
03:20 1029 30.39 858 25.34 0.6 33 71 -4.1 24.6
03:25 1029 30.39 858 25.34 0.4 32.8 72 -4.1 24.7
03:30 1029 30.39 858 25.34 0.4 32.8 72 -4.1 24.7
03:35 1029 30.39 858 25.34 -0 32 75 -4 24.8
03:40 1029 30.39 858 25.34 -0.1 31.7 75 -4.1 24.6
03:45 1029 30.39 858 25.34 -0.1 31.9 73 -4.3 24.3
03:50 1029 30.39 858 25.34 0.4 32.8 72 -4 24.8
03:55 1029 30.39 858 25.34 1.1 33.9 69 -3.9 24.9
04:00 1029 30.39 858 25.34 1.6 34.9 67 -3.8 25.1
04:05 1029 30.39 858 25.34 1.5 34.6 68 -3.9 25
04:10 1029 30.39 858 25.34 0.9 33.5 71 -3.8 25.1
04:15 1029 30.39 858 25.34 0.8 33.4 71 -3.8 25.1
04:20 1029 30.39 858 25.34 0.7 33.3 71 -3.9 25
04:25 1029 30.39 859 25.37 0.3 32.6 73 -3.9 25
04:30 1029 30.39 859 25.37 0.4 32.6 71 -4.4 24.1
04:35 1029 30.39 859 25.37 1.2 34.2 68 -4.1 24.6
04:40 1029 30.39 859 25.37 0.9 33.6 71 -3.8 25.1
04:45 1029 30.39 858 25.34 0.3 32.5 72 -4.1 24.5
04:50 1029 30.39 858 25.34 0.3 32.5 72 -4.2 24.4
04:55 1029 30.39 858 25.34 0.4 32.7 72 -4.1 24.7
05:00 1029 30.39 858 25.34 0.9 33.5 70 -4.1 24.7
05:05 1029 30.39 858 25.34 1.1 33.9 69 -3.9 24.9
05:10 1029 30.39 858 25.34 1.2 34.2 69 -3.9 25
05:15 1029 30.39 858 25.34 1 33.9 69 -4 24.8
05:20 1029 30.39 858 25.34 1.1 34 69 -4 24.9
05:25 1029 30.39 858 25.34 1.1 33.9 70 -3.9 25.1
05:30 1029 30.39 858 25.34 0.9 33.6 70 -4 24.9
05:35 1029 30.39 858 25.34 0.8 33.4 71 -3.9 25
05:40 1029 30.39 858 25.34 0.7 33.3 71 -4 24.9
05:45 1029 30.39 858 25.34 0.6 33.1 71 -4 24.8
05:50 1029 30.39 858 25.34 0.3 32.6 73 -4 24.8
05:55 1029 30.39 858 25.34 0.4 32.6 72 -4 24.7
06:00 1029 30.39 858 25.34 0.6 33.1 71 -4 24.8
06:05 1029 30.39 858 25.34 0.6 33.1 71 -4 24.9
06:10 1029 30.39 858 25.34 0.6 33 72 -3.9 24.9
06:15 1029 30.39 858 25.34 0.1 32.1 74 -4.1 24.7
06:20 1029 30.39 858 25.34 0.1 32.1 73 -4.2 24.4
06:25 1029 30.39 858 25.34 0.7 33.2 70 -4.2 24.4
06:30 1029 30.39 858 25.34 0.9 33.6 69 -4.1 24.6
06:35 1029 30.39 858 25.34 1 33.7 69 -4.1 24.7
06:40 1028 30.36 858 25.34 0.6 33.1 70 -4.2 24.4
06:45 1028 30.36 858 25.34 0.8 33.4 70 -4.1 24.6
06:50 1028 30.36 858 25.34 0.6 33.2 71 -4.1 24.7
06:55 1028 30.36 857 25.31 0.4 32.7 71 -4.2 24.5
07:00 1028 30.36 857 25.31 0.2 32.3 72 -4.2 24.5
07:05 1028 30.36 857 25.31 0.1 32.2 72 -4.3 24.2
07:10 1028 30.36 857 25.31 0.3 32.5 71 -4.3 24.2
07:15 1028 30.36 857 25.31 0.7 33.2 70 -4.2 24.5
07:20 1028 30.36 857 25.31 0.8 33.5 69 -4.2 24.4
07:25 1028 30.36 857 25.31 1 33.7 69 -4.1 24.5
07:30 1028 30.36 857 25.31 1 33.7 68 -4.2 24.4
07:35 1028 30.36 857 25.31 0.9 33.6 69 -4.1 24.6
07:40 1028 30.36 857 25.31 0.6 33.1 70 -4.3 24.3
07:45 1028 30.36 857 25.31 0.4 32.7 71 -4.3 24.2
07:50 1028 30.36 857 25.31 0.3 32.6 71 -4.4 24.1
07:55 1028 30.36 857 25.31 0.2 32.3 71 -4.4 24.1
08:00 1028 30.36 857 25.31 0.4 32.7 69 -4.6 23.8
08:05 1028 30.36 857 25.31 0.4 32.6 70 -4.5 23.9
08:10 1028 30.36 857 25.31 0.3 32.6 70 -4.5 23.8
08:15 1028 30.36 857 25.31 0.4 32.8 69 -4.5 23.8
08:20 1028 30.36 857 25.31 0.8 33.4 68 -4.5 23.8
08:25 1028 30.36 857 25.31 1.4 34.5 65 -4.4 24.1
08:30 1028 30.36 857 25.31 1.6 34.9 65 -4.3 24.2
08:35 1028 30.36 857 25.31 1.7 35.1 64 -4.4 24.2
08:40 1028 30.36 857 25.31 2 35.7 63 -4.3 24.2
08:45 1028 30.36 857 25.31 2.3 36.1 62 -4.3 24.3
08:50 1028 30.36 857 25.31 2.5 36.5 61 -4.3 24.3
08:55 1028 30.36 858 25.34 2.6 36.6 61 -4.3 24.3
09:00 1028 30.36 858 25.34 3.1 37.5 59 -4.1 24.6
09:05 1028 30.36 858 25.34 2.7 36.9 61 -4.1 24.6
09:10 1028 30.36 858 25.34 3.1 37.5 60 -4 24.9
09:15 1029 30.39 858 25.34 3.3 38 58 -4.1 24.6
09:20 1029 30.39 858 25.34 3.8 38.8 56 -4.2 24.5
09:25 1029 30.39 858 25.34 4.5 40.1 54 -3.9 24.9
09:30 1029 30.39 858 25.34 5.6 42 53 -3.3 26
09:35 1029 30.39 858 25.34 5.7 42.2 51 -3.6 25.5
09:40 1029 30.39 858 25.34 5.7 42.3 52 -3.5 25.7
09:45 1029 30.39 858 25.34 6 42.8 51 -3.5 25.7
09:50 1029 30.39 858 25.34 5.9 42.7 50 -3.6 25.5
09:55 1029 30.39 858 25.34 6 42.9 51 -3.4 25.9
10:00 1029 30.39 858 25.34 6.5 43.8 49 -3.3 26
10:05 1029 30.39 858 25.34 6.8 44.3 48 -3.3 26
10:10 1029 30.39 858 25.34 7 44.6 48 -3.3 26
10:15 1029 30.39 858 25.34 7.4 45.2 47 -3.1 26.4
10:20 1029 30.39 858 25.34 7.4 45.4 47 -3.1 26.4
10:25 1029 30.39 858 25.34 7.8 46.1 46 -3.1 26.4
10:30 1029 30.39 858 25.34 8.1 46.6 45 -3 26.6
10:35 1029 30.39 858 25.34 8 46.3 47 -2.7 27.1
10:40 1028 30.36 858 25.34 7.6 45.7 48 -2.7 27.1
10:45 1028 30.36 858 25.34 7.6 45.6 49 -2.5 27.5
10:50 1028 30.36 857 25.31 7.7 45.8 49 -2.3 27.8
10:55 1028 30.36 857 25.31 7.8 46 49 -2.3 27.8
11:00 1028 30.36 857 25.31 8 46.3 45 -3.3 26.1
11:05 1028 30.36 857 25.31 8.1 46.6 46 -2.7 27.1
11:10 1028 30.36 857 25.31 8.3 47 45 -2.9 26.8
11:15 1028 30.36 857 25.31 8.6 47.5 44 -3 26.6
11:20 1028 30.36 857 25.31 9 48.1 46 -1.9 28.5
11:25 1028 30.36 857 25.31 7.6 45.6 49 -2.3 27.8
11:30 1028 30.36 857 25.31 7.9 46.2 46 -2.9 26.8
11:35 1028 30.36 857 25.31 8.7 47.6 46 -2.2 28
11:40 1028 30.36 857 25.31 8 46.5 48 -2.4 27.6
11:45 1028 30.36 857 25.31 8.1 46.5 46 -2.8 27
11:50 1028 30.36 857 25.31 8.5 47.2 45 -2.8 27
11:55 1028 30.36 857 25.31 8.9 48 44 -2.6 27.2
12:00 1028 30.36 857 25.31 9.5 49 42 -2.9 26.8
12:05 1028 30.36 857 25.31 9.4 48.8 45 -2 28.3
12:10 1028 30.36 857 25.31 9 48.1 45 -2.2 28.1
12:15 1028 30.36 857 25.31 8.5 47.3 50 -1.4 29.4
12:20 1028 30.36 857 25.31 7.8 46 52 -1.5 29.3
12:25 1028 30.36 857 25.31 8.8 47.8 47 -1.9 28.7
12:30 1028 30.36 857 25.31 9.9 49.8 43 -2.1 28.3
12:35 1028 30.36 857 25.31 9.9 49.8 43 -2.1 28.2
12:40 1028 30.36 857 25.31 9.8 49.6 44 -2 28.4
12:45 1028 30.36 857 25.31 9.5 49.1 44 -2.1 28.2
12:50 1028 30.36 857 25.31 9.6 49.3 44 -1.9 28.5
12:55 1028 30.36 857 25.31 9.2 48.5 45 -2.1 28.2
13:00 1028 30.36 857 25.31 9.5 49 44 -2.3 27.9
13:05 1028 30.36 857 25.31 9.8 49.6 43 -2.2 28
13:10 1028 30.36 857 25.31 9.6 49.2 45 -1.6 29.1
13:15 1028 30.36 857 25.31 9.7 49.4 45 -1.5 29.2
13:20 1028 30.36 857 25.31 9.6 49.3 46 -1.5 29.2
13:25 1028 30.36 857 25.31 9.6 49.3 46 -1.4 29.4
13:30 1028 30.36 857 25.31 9.5 49 47 -1.2 29.8
13:35 1028 30.36 857 25.31 9.5 49.1 46 -1.6 29
13:40 1028 30.36 857 25.31 9.5 49 47 -1.4 29.6
13:45 1028 30.36 857 25.31 9 48.2 48 -1.4 29.5
13:50 1028 30.36 857 25.31 9.2 48.5 48 -1.1 30
13:55 1028 30.36 857 25.31 8.8 47.8 50 -1.1 30.1
14:00 1028 30.36 857 25.31 8.7 47.6 49 -1.5 29.3
14:05 1027 30.33 857 25.31 8.8 47.9 50 -0.9 30.3
14:10 1027 30.33 857 25.31 8.7 47.7 50 -1.1 30
14:15 1027 30.33 857 25.31 8.7 47.6 49 -1.3 29.6
14:20 1027 30.33 857 25.31 8.5 47.2 50 -1.5 29.4
14:25 1027 30.33 857 25.31 9.4 48.9 45 -1.8 28.8
14:30 1027 30.33 857 25.31 10 49.9 44 -1.6 29.2
14:35 1027 30.33 857 25.31 9.8 49.7 45 -1.5 29.4
14:40 1027 30.33 857 25.31 9.8 49.7 46 -1.2 29.8
14:45 1027 30.33 857 25.31 9.8 49.6 45 -1.7 29
14:50 1027 30.33 857 25.31 10.3 50.6 44 -1.5 29.4
14:55 1027 30.33 857 25.31 10.1 50.2 47 -0.5 31.1
15:00 1027 30.33 857 25.31 9.2 48.6 51 -0.3 31.5
15:05 1027 30.33 856 25.28 9 48.2 49 -1.2 29.8
15:10 1027 30.33 856 25.28 8.8 47.9 51 -0.6 30.9
15:15 1027 30.33 856 25.28 8.7 47.7 52 -0.6 30.9
15:20 1027 30.33 856 25.28 8.8 47.9 51 -0.6 30.9
15:25 1027 30.33 856 25.28 9.1 48.4 50 -0.7 30.7
15:30 1027 30.33 856 25.28 8.9 47.9 51 -0.7 30.8
15:35 1027 30.33 856 25.28 8.8 47.8 53 -0.4 31.3
15:40 1027 30.33 857 25.31 8.9 47.9 52 -0.5 31
15:45 1027 30.33 856 25.28 8.9 48 52 -0.3 31.5
15:50 1027 30.33 856 25.28 8.3 46.9 55 -0.3 31.5
15:55 1027 30.33 856 25.28 8 46.3 56 -0.2 31.7
16:00 1027 30.33 856 25.28 7.6 45.7 55 -0.8 30.6
16:05 1027 30.33 856 25.28 7.7 45.9 54 -0.9 30.3
16:10 1027 30.33 856 25.28 7.8 46.1 54 -0.9 30.3
16:15 1027 30.33 856 25.28 7.7 45.9 54 -0.9 30.5
16:20 1027 30.33 856 25.28 7.6 45.8 55 -0.8 30.6
16:25 1027 30.33 856 25.28 7.7 45.8 54 -1 30.2
16:30 1027 30.33 856 25.28 7.4 45.2 55 -1 30.1
16:35 1027 30.33 856 25.28 7.1 44.7 55 -1.3 29.7
16:40 1027 30.33 856 25.28 6.9 44.4 55 -1.4 29.5
16:45 1027 30.33 856 25.28 6.5 43.7 54 -2.1 28.2
16:50 1027 30.33 856 25.28 6.2 43.1 55 -2.3 27.9
16:55 1027 30.33 856 25.28 6 42.8 55 -2.4 27.6
17:00 1027 30.33 856 25.28 5.9 42.6 55 -2.4 27.7
17:05 1027 30.33 856 25.28 6 42.8 54 -2.7 27.2
17:10 1027 30.33 856 25.28 6 42.7 53 -2.8 26.9
17:15 1027 30.33 856 25.28 5.8 42.4 54 -2.9 26.7
17:20 1027 30.33 856 25.28 5.6 42 54 -2.9 26.8
17:25 1027 30.33 856 25.28 5.5 42 55 -2.8 27
17:30 1027 30.33 856 25.28 5.2 41.3 56 -2.9 26.8
17:35 1027 30.33 856 25.28 4.8 40.7 57 -3 26.7
17:40 1027 30.33 856 25.28 4.5 40.1 58 -3 26.5
17:45 1027 30.33 856 25.28 4.6 40.3 56 -3.4 25.8
17:50 1027 30.33 856 25.28 4.7 40.4 56 -3.3 26
17:55 1027 30.33 856 25.28 4.8 40.7 55 -3.4 25.8
18:00 1026 30.3 856 25.28 4.9 40.9 56 -3.1 26.4
18:05 1026 30.3 856 25.28 5 41 54 -3.5 25.8
18:10 1026 30.3 855 25.25 5.2 41.4 53 -3.6 25.6
18:15 1026 30.3 855 25.25 5.3 41.5 54 -3.4 25.9
18:20 1026 30.3 855 25.25 5.2 41.3 55 -3.2 26.3
18:25 1026 30.3 855 25.25 4.7 40.5 56 -3.4 25.9
18:30 1026 30.3 855 25.25 4.7 40.4 54 -3.8 25.1
18:35 1026 30.3 855 25.25 4.2 39.6 56 -3.7 25.4
18:40 1026 30.3 855 25.25 4 39.2 56 -3.9 25
18:45 1026 30.3 855 25.25 4.3 39.8 54 -4.1 24.6
18:50 1026 30.3 855 25.25 4.7 40.5 52 -4.4 24
18:55 1026 30.3 855 25.25 5 41 51 -4.3 24.3
19:00 1026 30.3 855 25.25 5 41 51 -4.2 24.4
19:05 1026 30.3 855 25.25 4.6 40.3 53 -4.1 24.6
19:10 1026 30.3 855 25.25 4.3 39.7 53 -4.4 24.1
19:15 1026 30.3 855 25.25 4.6 40.3 52 -4.4 24.1
19:20 1026 30.3 855 25.25 4.7 40.4 52 -4.3 24.3
19:25 1026 30.3 855 25.25 4.8 40.7 51 -4.4 24.1
19:30 1026 30.3 855 25.25 4.8 40.7 51 -4.4 24.1
19:35 1026 30.3 855 25.25 4.4 39.8 54 -4.1 24.5
19:40 1026 30.3 855 25.25 3.8 38.9 55 -4.4 24
19:45 1026 30.3 855 25.25 3.8 38.9 54 -4.6 23.7
19:50 1026 30.3 855 25.25 4.1 39.4 53 -4.6 23.7
19:55 1026 30.3 855 25.25 4.2 39.5 53 -4.5 23.9
20:00 1026 30.3 855 25.25 4.4 39.9 53 -4.3 24.3
20:05 1026 30.3 855 25.25 4.1 39.4 54 -4.3 24.2
20:10 1026 30.3 855 25.25 4.4 40 52 -4.6 23.6
20:15 1026 30.3 855 25.25 4.6 40.2 51 -4.6 23.7
20:20 1026 30.3 856 25.28 4.2 39.6 52 -4.7 23.6
20:25 1026 30.3 856 25.28 3.9 39 54 -4.5 23.9
20:30 1026 30.3 856 25.28 3.4 38.2 55 -4.7 23.6
20:35 1026 30.3 856 25.28 3.8 38.8 54 -4.8 23.4
20:40 1027 30.33 856 25.28 4 39.3 53 -4.6 23.8
20:45 1026 30.3 856 25.28 4.1 39.4 54 -4.3 24.3
20:50 1026 30.3 856 25.28 4.4 39.9 53 -4.4 24.1
20:55 1026 30.3 856 25.28 4.7 40.4 53 -4.2 24.4
21:00 1027 30.33 856 25.28 4.5 40.1 53 -4.2 24.4
21:05 1027 30.33 856 25.28 4.4 39.8 54 -4.2 24.4
21:10 1027 30.33 856 25.28 4.1 39.4 55 -4.1 24.7
21:15 1027 30.33 856 25.28 3.8 38.8 55 -4.4 24.1
21:20 1027 30.33 856 25.28 3.9 39 54 -4.5 23.9
21:25 1027 30.33 856 25.28 3.7 38.6 55 -4.4 24
21:30 1027 30.33 856 25.28 3.6 38.4 55 -4.6 23.8
21:35 1027 30.33 856 25.28 3.2 37.8 57 -4.5 23.9
21:40 1027 30.33 856 25.28 2.9 37.1 59 -4.4 24.1
21:45 1027 30.33 856 25.28 2.6 36.7 59 -4.6 23.7
21:50 1027 30.33 856 25.28 2.6 36.7 58 -4.9 23.1
21:55 1027 30.33 856 25.28 2.8 37 58 -4.6 23.7
22:00 1027 30.33 856 25.28 2.5 36.4 59 -4.7 23.5
22:05 1027 30.33 856 25.28 2.4 36.3 59 -4.7 23.5
22:10 1027 30.33 856 25.28 2.3 36.1 60 -4.8 23.4
22:15 1027 30.33 856 25.28 2.3 36.2 59 -4.9 23.2
22:20 1027 30.33 856 25.28 2.8 37.1 57 -4.8 23.3
22:25 1027 30.33 856 25.28 3 37.4 55 -5.1 22.9
22:30 1027 30.33 856 25.28 3.2 37.8 55 -4.9 23.3
22:35 1027 30.33 856 25.28 3.1 37.5 55 -5 23
22:40 1027 30.33 856 25.28 3.1 37.5 56 -4.9 23.1
22:45 1027 30.33 856 25.28 3 37.4 55 -5.1 22.8
22:50 1027 30.33 856 25.28 3.2 37.8 54 -5.3 22.5
22:55 1027 30.33 856 25.28 3.4 38 54 -5 23
23:00 1027 30.33 856 25.28 3.3 37.9 53 -5.3 22.5
23:05 1027 30.33 856 25.28 3.5 38.3 52 -5.3 22.4
23:10 1027 30.33 856 25.28 3.6 38.5 53 -5.2 22.7
23:15 1027 30.33 856 25.28 3.7 38.7 52 -5.2 22.7
23:20 1026 30.3 856 25.28 3.5 38.4 52 -5.3 22.4
23:25 1026 30.3 856 25.28 3.7 38.6 53 -5.1 22.8
23:30 1026 30.3 856 25.28 3.6 38.5 52 -5.2 22.6
23:35 1026 30.3 856 25.28 3.5 38.4 53 -5.2 22.6
23:40 1026 30.3 856 25.28 3.7 38.6 54 -4.9 23.2
23:45 1027 30.33 856 25.28 3 37.4 57 -4.7 23.5
23:50 1027 30.33 856 25.28 2.7 36.8 58 -4.7 23.5
23:55 1027 30.33 856 25.28 2.6 36.7 58 -4.7 23.5
24:00 1027 30.33 856 25.28 2.8 37 58 -4.7 23.6